createdAt,value
2019-01-29T00:01:27.236Z,22.4
2019-01-29T00:11:26.223Z,24.2
2019-01-29T00:21:26.258Z,23.0
2019-01-29T00:31:26.385Z,22.8
2019-01-29T00:41:26.618Z,22.4
2019-01-29T00:51:26.593Z,23.2
2019-01-29T01:01:27.093Z,23.5
2019-01-29T01:11:29.608Z,22.7
2019-01-29T01:21:26.471Z,22.6
2019-01-29T01:31:29.249Z,22.6
2019-01-29T01:41:26.143Z,23.5
2019-01-29T01:51:25.679Z,21.9
2019-01-29T02:01:26.382Z,22.0
2019-01-29T02:11:26.135Z,17.0
2019-01-29T02:21:27.258Z,17.4
2019-01-29T02:31:25.861Z,17.3
2019-01-29T02:41:27.172Z,15.5
2019-01-29T02:51:27.068Z,14.9
2019-01-29T03:01:26.336Z,16.4
2019-01-29T03:11:27.576Z,15.9
2019-01-29T03:21:26.537Z,15.6
2019-01-29T03:31:27.797Z,14.3
2019-01-29T03:41:27.678Z,13.0
2019-01-29T03:51:27.785Z,15.0
2019-01-29T04:01:26.508Z,13.4
2019-01-29T04:11:26.155Z,13.2
2019-01-29T04:21:26.030Z,13.8
2019-01-29T04:31:25.980Z,14.5
2019-01-29T04:41:26.605Z,15.5
2019-01-29T04:51:26.677Z,14.3
2019-01-29T05:01:26.290Z,13.2
2019-01-29T05:11:26.605Z,14.6
2019-01-29T05:21:26.880Z,20.2
2019-01-29T05:31:27.168Z,13.8
2019-01-29T05:41:25.783Z,11.7
2019-01-29T05:51:27.018Z,11.4
2019-01-29T06:01:27.003Z,8.1
2019-01-29T06:11:26.944Z,8.7
2019-01-29T06:21:26.136Z,8.9
2019-01-29T06:31:25.959Z,9.4
2019-01-29T06:41:26.902Z,8.2
2019-01-29T06:51:27.534Z,7.8
2019-01-29T07:01:26.478Z,9.2
2019-01-29T07:11:26.849Z,10.3
2019-01-29T07:21:26.522Z,9.1
2019-01-29T07:31:26.243Z,8.5
2019-01-29T07:41:27.980Z,9.1
2019-01-29T07:51:26.201Z,8.1
2019-01-29T08:01:27.001Z,9.4
2019-01-29T08:11:26.096Z,14.0
2019-01-29T08:21:26.396Z,10.3
2019-01-29T08:31:26.466Z,9.4
2019-01-29T08:41:28.443Z,10.8
2019-01-29T08:51:26.190Z,11.6
2019-01-29T09:01:26.118Z,11.2
2019-01-29T09:11:26.035Z,10.8
2019-01-29T09:21:26.936Z,11.0
2019-01-29T09:31:26.596Z,11.7
2019-01-29T09:41:26.638Z,8.7
2019-01-29T09:51:26.429Z,12.3
2019-01-29T10:01:27.303Z,11.9
2019-01-29T10:11:28.447Z,12.1
2019-01-29T10:21:26.562Z,10.9
2019-01-29T10:31:27.132Z,10.2
2019-01-29T10:41:25.937Z,10.4
2019-01-29T10:51:25.602Z,9.0
2019-01-29T11:01:26.308Z,10.1
2019-01-29T11:11:28.124Z,9.9
2019-01-29T11:21:26.120Z,10.3
2019-01-29T11:31:26.469Z,11.1
2019-01-29T11:41:26.804Z,12.2
2019-01-29T11:51:26.602Z,13.5
2019-01-29T12:01:26.368Z,12.2
2019-01-29T12:11:32.092Z,12.2
2019-01-29T12:21:26.336Z,12.3
2019-01-29T12:31:25.951Z,12.3
2019-01-29T12:41:27.508Z,10.9
2019-01-29T12:51:26.587Z,11.6
2019-01-29T13:01:26.837Z,10.1
2019-01-29T13:11:26.738Z,8.4
2019-01-29T13:21:27.886Z,9.8
2019-01-29T13:31:27.493Z,10.1
2019-01-29T13:41:26.549Z,10.8
2019-01-29T13:51:26.295Z,9.0
2019-01-29T14:01:26.370Z,8.4
2019-01-29T14:11:26.313Z,11.6
2019-01-29T14:21:26.304Z,11.2
2019-01-29T14:31:26.414Z,10.4
2019-01-29T14:41:26.371Z,11.3
2019-01-29T14:51:27.581Z,10.6
2019-01-29T15:01:27.637Z,11.8
2019-01-29T15:11:27.710Z,11.1
2019-01-29T15:21:26.535Z,13.1
2019-01-29T15:31:26.522Z,12.3
2019-01-29T15:41:31.066Z,13.2
2019-01-29T15:51:26.352Z,11.5
2019-01-29T16:01:26.350Z,12.3
2019-01-29T16:11:27.675Z,13.2
2019-01-29T16:21:26.554Z,15.8
2019-01-29T16:31:26.482Z,11.4
2019-01-29T16:41:26.221Z,12.7
2019-01-29T16:51:26.592Z,13.4
2019-01-29T17:01:30.610Z,14.3
2019-01-29T17:11:28.463Z,14.2
2019-01-29T17:21:26.990Z,11.7
2019-01-29T17:31:25.751Z,10.2
2019-01-29T17:41:28.169Z,11.6
2019-01-29T17:51:25.914Z,13.0
2019-01-29T18:01:26.811Z,16.4
2019-01-29T18:11:27.026Z,19.1
2019-01-29T18:21:26.055Z,15.9
2019-01-29T18:31:25.941Z,13.7
2019-01-29T18:41:27.021Z,12.2
2019-01-29T18:51:25.771Z,13.4
2019-01-29T19:01:26.692Z,11.4
2019-01-29T19:11:29.739Z,13.2
2019-01-29T19:21:26.306Z,12.5
2019-01-29T19:31:26.939Z,11.7
2019-01-29T19:41:26.794Z,8.6
2019-01-29T19:51:27.721Z,7.9
2019-01-29T20:01:26.889Z,7.3
2019-01-29T20:11:25.997Z,7.8
2019-01-29T20:21:26.076Z,8.1
2019-01-29T20:31:26.042Z,7.9
2019-01-29T20:41:26.437Z,8.7
2019-01-29T20:51:27.058Z,7.9
2019-01-29T21:01:27.751Z,7.6
2019-01-29T21:11:26.499Z,8.6
2019-01-29T21:21:26.445Z,7.4
2019-01-29T21:31:27.261Z,7.2
2019-01-29T21:41:27.669Z,7.9
2019-01-29T21:51:26.739Z,8.4
2019-01-29T22:01:27.078Z,7.5
2019-01-29T22:11:26.663Z,7.3
2019-01-29T22:21:25.736Z,7.7
2019-01-29T22:31:26.692Z,7.9
2019-01-29T22:41:27.034Z,8.0
2019-01-29T22:51:26.136Z,8.0
2019-01-29T23:01:28.231Z,7.5
2019-01-29T23:11:28.647Z,7.9
2019-01-29T23:21:28.037Z,8.2
2019-01-29T23:31:25.789Z,9.4
2019-01-29T23:41:26.714Z,10.1
2019-01-29T23:51:26.359Z,12.1
